sensor_id;sensor_type;location;lat;lon;timestamp;temperature;humidity
69418;DHT22;56610;48.872;2.400;2022-12-18T00:02:06;4.90;99.90
69418;DHT22;56610;48.872;2.400;2022-12-18T00:04:32;4.90;99.90
69418;DHT22;56610;48.872;2.400;2022-12-18T00:06:57;4.80;99.90
69418;DHT22;56610;48.872;2.400;2022-12-18T00:09:23;4.50;99.90
69418;DHT22;56610;48.872;2.400;2022-12-18T00:11:48;4.10;99.90
69418;DHT22;56610;48.872;2.400;2022-12-18T00:14:14;4.00;99.90
69418;DHT22;56610;48.872;2.400;2022-12-18T00:16:43;3.70;99.90
69418;DHT22;56610;48.872;2.400;2022-12-18T00:19:10;3.40;99.90
69418;DHT22;56610;48.872;2.400;2022-12-18T00:21:35;3.20;99.90
69418;DHT22;56610;48.872;2.400;2022-12-18T00:24:01;3.10;99.90
69418;DHT22;56610;48.872;2.400;2022-12-18T00:26:30;3.00;99.90
69418;DHT22;56610;48.872;2.400;2022-12-18T00:28:59;3.00;99.90
69418;DHT22;56610;48.872;2.400;2022-12-18T00:31:25;3.00;99.90
69418;DHT22;56610;48.872;2.400;2022-12-18T00:33:52;3.00;99.90
69418;DHT22;56610;48.872;2.400;2022-12-18T00:36:30;2.90;99.90
69418;DHT22;56610;48.872;2.400;2022-12-18T00:38:58;3.00;99.90
69418;DHT22;56610;48.872;2.400;2022-12-18T00:41:24;2.90;99.90
69418;DHT22;56610;48.872;2.400;2022-12-18T00:44:10;2.80;99.90
69418;DHT22;56610;48.872;2.400;2022-12-18T00:46:37;2.90;99.90
69418;DHT22;56610;48.872;2.400;2022-12-18T00:49:03;2.70;99.90
69418;DHT22;56610;48.872;2.400;2022-12-18T00:51:29;2.70;99.90
69418;DHT22;56610;48.872;2.400;2022-12-18T00:53:54;2.80;99.90
69418;DHT22;56610;48.872;2.400;2022-12-18T00:56:20;2.80;99.90
69418;DHT22;56610;48.872;2.400;2022-12-18T00:58:49;2.90;99.90
69418;DHT22;56610;48.872;2.400;2022-12-18T01:01:15;3.10;99.90
69418;DHT22;56610;48.872;2.400;2022-12-18T01:03:40;3.40;99.90
69418;DHT22;56610;48.872;2.400;2022-12-18T01:06:08;3.70;99.90
69418;DHT22;56610;48.872;2.400;2022-12-18T01:08:34;4.10;99.90
69418;DHT22;56610;48.872;2.400;2022-12-18T01:11:00;4.20;99.90
69418;DHT22;56610;48.872;2.400;2022-12-18T01:13:26;4.10;99.90
69418;DHT22;56610;48.872;2.400;2022-12-18T01:15:51;4.00;99.90
69418;DHT22;56610;48.872;2.400;2022-12-18T01:18:17;3.90;99.90
69418;DHT22;56610;48.872;2.400;2022-12-18T01:20:43;3.90;99.90
69418;DHT22;56610;48.872;2.400;2022-12-18T01:23:08;4.10;99.90
69418;DHT22;56610;48.872;2.400;2022-12-18T01:25:36;4.20;99.90
69418;DHT22;56610;48.872;2.400;2022-12-18T01:28:02;4.10;99.90
69418;DHT22;56610;48.872;2.400;2022-12-18T01:30:28;3.90;99.90
69418;DHT22;56610;48.872;2.400;2022-12-18T01:32:53;4.20;99.90
69418;DHT22;56610;48.872;2.400;2022-12-18T01:35:19;4.30;99.90
69418;DHT22;56610;48.872;2.400;2022-12-18T01:37:44;4.10;99.90
69418;DHT22;56610;48.872;2.400;2022-12-18T01:40:10;4.20;99.90
69418;DHT22;56610;48.872;2.400;2022-12-18T01:42:36;4.30;99.90
69418;DHT22;56610;48.872;2.400;2022-12-18T01:48:10;4.40;99.90
69418;DHT22;56610;48.872;2.400;2022-12-18T01:50:40;4.60;99.90
69418;DHT22;56610;48.872;2.400;2022-12-18T01:53:18;4.50;99.90
69418;DHT22;56610;48.872;2.400;2022-12-18T01:55:52;4.50;99.90
69418;DHT22;56610;48.872;2.400;2022-12-18T01:58:22;4.60;99.90
69418;DHT22;56610;48.872;2.400;2022-12-18T02:00:49;4.60;99.90
69418;DHT22;56610;48.872;2.400;2022-12-18T02:03:15;4.50;99.90
69418;DHT22;56610;48.872;2.400;2022-12-18T02:08:35;4.70;99.90
69418;DHT22;56610;48.872;2.400;2022-12-18T02:14:04;4.50;99.90
69418;DHT22;56610;48.872;2.400;2022-12-18T02:19:37;4.50;99.90
69418;DHT22;56610;48.872;2.400;2022-12-18T02:24:51;4.40;99.90
69418;DHT22;56610;48.872;2.400;2022-12-18T02:27:19;4.50;99.90
69418;DHT22;56610;48.872;2.400;2022-12-18T02:29:51;4.50;99.90
69418;DHT22;56610;48.872;2.400;2022-12-18T02:32:22;4.40;99.90
69418;DHT22;56610;48.872;2.400;2022-12-18T02:34:51;4.30;99.90
69418;DHT22;56610;48.872;2.400;2022-12-18T02:37:18;4.30;99.90
69418;DHT22;56610;48.872;2.400;2022-12-18T02:39:47;4.30;99.90
69418;DHT22;56610;48.872;2.400;2022-12-18T02:42:13;4.30;99.90
69418;DHT22;56610;48.872;2.400;2022-12-18T02:44:51;4.40;99.90
69418;DHT22;56610;48.872;2.400;2022-12-18T02:47:22;4.10;99.90
69418;DHT22;56610;48.872;2.400;2022-12-18T02:50:26;4.00;99.90
69418;DHT22;56610;48.872;2.400;2022-12-18T02:59:00;4.00;99.90
69418;DHT22;56610;48.872;2.400;2022-12-18T03:01:33;4.00;99.90
69418;DHT22;56610;48.872;2.400;2022-12-18T03:04:14;3.70;99.90
69418;DHT22;56610;48.872;2.400;2022-12-18T03:06:49;3.90;99.90
69418;DHT22;56610;48.872;2.400;2022-12-18T03:09:22;3.80;99.90
69418;DHT22;56610;48.872;2.400;2022-12-18T03:11:56;3.70;99.90
69418;DHT22;56610;48.872;2.400;2022-12-18T03:14:42;3.70;99.90
69418;DHT22;56610;48.872;2.400;2022-12-18T03:17:14;3.40;99.90
69418;DHT22;56610;48.872;2.400;2022-12-18T03:19:42;3.40;99.90
69418;DHT22;56610;48.872;2.400;2022-12-18T03:22:09;3.60;99.90
69418;DHT22;56610;48.872;2.400;2022-12-18T03:24:36;3.40;99.90
69418;DHT22;56610;48.872;2.400;2022-12-18T03:27:07;3.30;99.90
69418;DHT22;56610;48.872;2.400;2022-12-18T03:30:11;3.30;99.90
69418;DHT22;56610;48.872;2.400;2022-12-18T03:35:46;3.30;99.90
69418;DHT22;56610;48.872;2.400;2022-12-18T03:38:12;3.20;99.90
69418;DHT22;56610;48.872;2.400;2022-12-18T03:43:52;3.40;99.90
69418;DHT22;56610;48.872;2.400;2022-12-18T03:49:08;3.40;99.90
69418;DHT22;56610;48.872;2.400;2022-12-18T03:51:37;3.60;99.90
69418;DHT22;56610;48.872;2.400;2022-12-18T03:54:07;3.40;99.90
69418;DHT22;56610;48.872;2.400;2022-12-18T03:56:39;3.60;99.90
69418;DHT22;56610;48.872;2.400;2022-12-18T03:59:07;3.70;99.90
69418;DHT22;56610;48.872;2.400;2022-12-18T04:01:38;3.50;99.90
69418;DHT22;56610;48.872;2.400;2022-12-18T04:04:05;3.60;99.90
69418;DHT22;56610;48.872;2.400;2022-12-18T04:06:32;3.70;99.90
69418;DHT22;56610;48.872;2.400;2022-12-18T04:09:01;3.50;99.90
69418;DHT22;56610;48.872;2.400;2022-12-18T04:11:27;3.40;99.90
69418;DHT22;56610;48.872;2.400;2022-12-18T04:13:57;3.40;99.90
69418;DHT22;56610;48.872;2.400;2022-12-18T04:16:24;3.20;99.90
69418;DHT22;56610;48.872;2.400;2022-12-18T04:18:50;3.30;99.90
69418;DHT22;56610;48.872;2.400;2022-12-18T04:21:15;3.20;99.90
69418;DHT22;56610;48.872;2.400;2022-12-18T04:23:41;3.10;99.90
69418;DHT22;56610;48.872;2.400;2022-12-18T04:26:06;3.20;99.90
69418;DHT22;56610;48.872;2.400;2022-12-18T04:28:32;3.20;99.90
69418;DHT22;56610;48.872;2.400;2022-12-18T04:30:58;3.20;99.90
69418;DHT22;56610;48.872;2.400;2022-12-18T04:33:23;3.50;99.90
69418;DHT22;56610;48.872;2.400;2022-12-18T04:35:49;3.50;99.90
69418;DHT22;56610;48.872;2.400;2022-12-18T04:38:14;3.50;99.90
69418;DHT22;56610;48.872;2.400;2022-12-18T04:40:40;3.80;99.90
69418;DHT22;56610;48.872;2.400;2022-12-18T04:43:05;3.70;99.90
69418;DHT22;56610;48.872;2.400;2022-12-18T04:45:32;3.60;99.90
69418;DHT22;56610;48.872;2.400;2022-12-18T04:47:58;3.70;99.90
69418;DHT22;56610;48.872;2.400;2022-12-18T04:50:24;3.80;99.90
69418;DHT22;56610;48.872;2.400;2022-12-18T04:52:49;3.90;99.90
69418;DHT22;56610;48.872;2.400;2022-12-18T04:55:15;4.00;99.90
69418;DHT22;56610;48.872;2.400;2022-12-18T04:57:40;4.00;99.90
69418;DHT22;56610;48.872;2.400;2022-12-18T05:00:07;3.70;99.90
69418;DHT22;56610;48.872;2.400;2022-12-18T05:02:32;3.90;99.90
69418;DHT22;56610;48.872;2.400;2022-12-18T05:04:58;3.90;99.90
69418;DHT22;56610;48.872;2.400;2022-12-18T05:07:24;3.90;99.90
69418;DHT22;56610;48.872;2.400;2022-12-18T05:09:49;3.90;99.90
69418;DHT22;56610;48.872;2.400;2022-12-18T05:12:15;3.80;99.90
69418;DHT22;56610;48.872;2.400;2022-12-18T05:14:41;3.70;99.90
69418;DHT22;56610;48.872;2.400;2022-12-18T05:17:06;3.90;99.90
69418;DHT22;56610;48.872;2.400;2022-12-18T05:19:32;3.80;99.90
69418;DHT22;56610;48.872;2.400;2022-12-18T05:21:57;3.70;99.90
69418;DHT22;56610;48.872;2.400;2022-12-18T05:24:23;3.80;99.90
69418;DHT22;56610;48.872;2.400;2022-12-18T05:26:49;3.80;99.90
69418;DHT22;56610;48.872;2.400;2022-12-18T05:29:14;3.80;99.90
69418;DHT22;56610;48.872;2.400;2022-12-18T05:31:40;4.00;99.90
69418;DHT22;56610;48.872;2.400;2022-12-18T05:34:06;4.00;99.90
69418;DHT22;56610;48.872;2.400;2022-12-18T05:36:31;3.80;99.90
69418;DHT22;56610;48.872;2.400;2022-12-18T05:38:57;4.00;99.90
69418;DHT22;56610;48.872;2.400;2022-12-18T05:41:22;3.80;99.90
69418;DHT22;56610;48.872;2.400;2022-12-18T05:43:48;3.50;99.90
69418;DHT22;56610;48.872;2.400;2022-12-18T05:46:16;3.70;99.90
69418;DHT22;56610;48.872;2.400;2022-12-18T05:48:43;3.50;99.90
69418;DHT22;56610;48.872;2.400;2022-12-18T05:51:12;3.40;99.90
69418;DHT22;56610;48.872;2.400;2022-12-18T05:53:38;3.50;99.90
69418;DHT22;56610;48.872;2.400;2022-12-18T05:56:06;3.50;99.90
69418;DHT22;56610;48.872;2.400;2022-12-18T05:58:33;3.30;99.90
69418;DHT22;56610;48.872;2.400;2022-12-18T06:01:10;3.50;99.90
69418;DHT22;56610;48.872;2.400;2022-12-18T06:03:36;3.30;99.90
69418;DHT22;56610;48.872;2.400;2022-12-18T06:06:02;3.40;99.90
69418;DHT22;56610;48.872;2.400;2022-12-18T06:08:28;3.30;99.90
69418;DHT22;56610;48.872;2.400;2022-12-18T06:10:54;3.20;99.90
69418;DHT22;56610;48.872;2.400;2022-12-18T06:13:20;3.30;99.90
69418;DHT22;56610;48.872;2.400;2022-12-18T06:15:46;3.50;99.90
69418;DHT22;56610;48.872;2.400;2022-12-18T06:18:11;3.50;99.90
69418;DHT22;56610;48.872;2.400;2022-12-18T06:20:37;3.50;99.90
69418;DHT22;56610;48.872;2.400;2022-12-18T06:23:05;3.80;99.90
69418;DHT22;56610;48.872;2.400;2022-12-18T06:25:31;3.70;99.90
69418;DHT22;56610;48.872;2.400;2022-12-18T06:27:58;3.70;99.90
69418;DHT22;56610;48.872;2.400;2022-12-18T06:30:24;3.80;99.90
69418;DHT22;56610;48.872;2.400;2022-12-18T06:32:49;3.70;99.90
69418;DHT22;56610;48.872;2.400;2022-12-18T06:35:15;3.60;99.90
69418;DHT22;56610;48.872;2.400;2022-12-18T06:37:41;3.70;99.90
69418;DHT22;56610;48.872;2.400;2022-12-18T06:40:07;3.60;99.90
69418;DHT22;56610;48.872;2.400;2022-12-18T06:42:33;3.60;99.90
69418;DHT22;56610;48.872;2.400;2022-12-18T06:44:58;3.50;99.90
69418;DHT22;56610;48.872;2.400;2022-12-18T06:47:24;3.40;99.90
69418;DHT22;56610;48.872;2.400;2022-12-18T06:49:50;3.30;99.90
69418;DHT22;56610;48.872;2.400;2022-12-18T06:52:15;3.40;99.90
69418;DHT22;56610;48.872;2.400;2022-12-18T06:54:41;3.30;99.90
69418;DHT22;56610;48.872;2.400;2022-12-18T06:57:06;3.40;99.90
69418;DHT22;56610;48.872;2.400;2022-12-18T06:59:32;3.60;99.90
69418;DHT22;56610;48.872;2.400;2022-12-18T07:01:58;3.20;99.90
69418;DHT22;56610;48.872;2.400;2022-12-18T07:04:30;3.20;99.90
69418;DHT22;56610;48.872;2.400;2022-12-18T07:06:56;3.20;99.90
69418;DHT22;56610;48.872;2.400;2022-12-18T07:09:23;3.10;99.90
69418;DHT22;56610;48.872;2.400;2022-12-18T07:11:49;3.20;99.90
69418;DHT22;56610;48.872;2.400;2022-12-18T07:14:14;3.20;99.90
69418;DHT22;56610;48.872;2.400;2022-12-18T07:16:40;3.20;99.90
69418;DHT22;56610;48.872;2.400;2022-12-18T07:19:06;3.30;99.90
69418;DHT22;56610;48.872;2.400;2022-12-18T07:21:31;3.00;99.90
69418;DHT22;56610;48.872;2.400;2022-12-18T07:23:57;3.00;99.90
69418;DHT22;56610;48.872;2.400;2022-12-18T07:26:23;3.10;99.90
69418;DHT22;56610;48.872;2.400;2022-12-18T07:28:49;3.00;99.90
69418;DHT22;56610;48.872;2.400;2022-12-18T07:31:20;3.00;99.90
69418;DHT22;56610;48.872;2.400;2022-12-18T07:33:46;3.00;99.90
69418;DHT22;56610;48.872;2.400;2022-12-18T07:36:12;2.50;99.90
69418;DHT22;56610;48.872;2.400;2022-12-18T07:38:38;2.40;99.90
69418;DHT22;56610;48.872;2.400;2022-12-18T07:41:09;2.30;99.90
69418;DHT22;56610;48.872;2.400;2022-12-18T07:43:35;2.10;99.90
69418;DHT22;56610;48.872;2.400;2022-12-18T07:46:01;2.30;99.90
69418;DHT22;56610;48.872;2.400;2022-12-18T07:48:30;2.30;99.90
69418;DHT22;56610;48.872;2.400;2022-12-18T07:51:00;2.10;99.90
69418;DHT22;56610;48.872;2.400;2022-12-18T07:53:27;2.30;99.90
69418;DHT22;56610;48.872;2.400;2022-12-18T07:56:00;2.10;99.90
69418;DHT22;56610;48.872;2.400;2022-12-18T07:58:27;2.00;99.90
69418;DHT22;56610;48.872;2.400;2022-12-18T08:00:53;2.00;99.90
69418;DHT22;56610;48.872;2.400;2022-12-18T08:03:19;1.60;99.90
69418;DHT22;56610;48.872;2.400;2022-12-18T08:05:45;1.70;99.90
69418;DHT22;56610;48.872;2.400;2022-12-18T08:08:10;1.80;99.90
69418;DHT22;56610;48.872;2.400;2022-12-18T08:10:37;1.60;99.90
69418;DHT22;56610;48.872;2.400;2022-12-18T08:13:03;1.80;99.90
69418;DHT22;56610;48.872;2.400;2022-12-18T08:15:28;2.00;99.90
69418;DHT22;56610;48.872;2.400;2022-12-18T08:17:56;1.80;99.90
69418;DHT22;56610;48.872;2.400;2022-12-18T08:20:22;2.10;99.90
69418;DHT22;56610;48.872;2.400;2022-12-18T08:22:48;2.20;99.90
69418;DHT22;56610;48.872;2.400;2022-12-18T08:25:13;1.90;99.90
69418;DHT22;56610;48.872;2.400;2022-12-18T08:27:39;2.10;99.90
69418;DHT22;56610;48.872;2.400;2022-12-18T08:30:05;1.90;99.90
69418;DHT22;56610;48.872;2.400;2022-12-18T08:32:31;1.90;99.90
69418;DHT22;56610;48.872;2.400;2022-12-18T08:34:58;1.90;99.90
69418;DHT22;56610;48.872;2.400;2022-12-18T08:37:23;1.50;99.90
69418;DHT22;56610;48.872;2.400;2022-12-18T08:39:49;1.30;99.90
69418;DHT22;56610;48.872;2.400;2022-12-18T08:42:15;1.20;99.90
69418;DHT22;56610;48.872;2.400;2022-12-18T08:44:59;0.90;99.90
69418;DHT22;56610;48.872;2.400;2022-12-18T08:47:24;1.00;99.90
69418;DHT22;56610;48.872;2.400;2022-12-18T08:49:51;1.10;99.90
69418;DHT22;56610;48.872;2.400;2022-12-18T08:52:16;1.00;99.90
69418;DHT22;56610;48.872;2.400;2022-12-18T08:54:42;1.20;99.90
69418;DHT22;56610;48.872;2.400;2022-12-18T08:57:08;1.20;99.90
69418;DHT22;56610;48.872;2.400;2022-12-18T08:59:33;1.10;99.90
69418;DHT22;56610;48.872;2.400;2022-12-18T09:01:59;1.30;99.90
69418;DHT22;56610;48.872;2.400;2022-12-18T09:04:24;0.90;99.90
69418;DHT22;56610;48.872;2.400;2022-12-18T09:06:50;0.80;99.90
69418;DHT22;56610;48.872;2.400;2022-12-18T09:09:15;1.00;99.90
69418;DHT22;56610;48.872;2.400;2022-12-18T09:11:41;0.90;99.90
69418;DHT22;56610;48.872;2.400;2022-12-18T09:14:07;0.90;99.90
69418;DHT22;56610;48.872;2.400;2022-12-18T09:16:33;1.00;99.90
69418;DHT22;56610;48.872;2.400;2022-12-18T09:19:01;0.90;99.90
69418;DHT22;56610;48.872;2.400;2022-12-18T09:21:30;1.10;99.90
69418;DHT22;56610;48.872;2.400;2022-12-18T09:23:56;1.10;99.90
69418;DHT22;56610;48.872;2.400;2022-12-18T09:26:23;1.10;99.90
69418;DHT22;56610;48.872;2.400;2022-12-18T09:28:50;1.50;99.90
69418;DHT22;56610;48.872;2.400;2022-12-18T09:31:18;1.80;99.90
69418;DHT22;56610;48.872;2.400;2022-12-18T09:33:43;1.80;99.90
69418;DHT22;56610;48.872;2.400;2022-12-18T09:36:12;2.10;99.90
69418;DHT22;56610;48.872;2.400;2022-12-18T09:38:38;2.10;99.90
69418;DHT22;56610;48.872;2.400;2022-12-18T09:43:51;2.30;99.90
69418;DHT22;56610;48.872;2.400;2022-12-18T09:46:32;2.10;99.90
69418;DHT22;56610;48.872;2.400;2022-12-18T09:49:04;1.90;99.90
69418;DHT22;56610;48.872;2.400;2022-12-18T09:51:44;2.10;99.90
69418;DHT22;56610;48.872;2.400;2022-12-18T09:54:49;2.00;99.90
69418;DHT22;56610;48.872;2.400;2022-12-18T09:57:15;2.30;99.90
69418;DHT22;56610;48.872;2.400;2022-12-18T09:59:43;2.30;99.90
69418;DHT22;56610;48.872;2.400;2022-12-18T10:02:18;2.30;99.90
69418;DHT22;56610;48.872;2.400;2022-12-18T10:05:03;2.50;99.90
69418;DHT22;56610;48.872;2.400;2022-12-18T10:07:57;2.50;99.90
69418;DHT22;56610;48.872;2.400;2022-12-18T10:10:45;2.80;99.90
69418;DHT22;56610;48.872;2.400;2022-12-18T10:16:06;3.00;99.90
69418;DHT22;56610;48.872;2.400;2022-12-18T10:21:19;2.80;99.90
69418;DHT22;56610;48.872;2.400;2022-12-18T10:24:02;2.90;99.90
69418;DHT22;56610;48.872;2.400;2022-12-18T10:26:33;2.90;99.90
69418;DHT22;56610;48.872;2.400;2022-12-18T10:28:59;2.70;99.90
69418;DHT22;56610;48.872;2.400;2022-12-18T10:31:25;3.00;99.90
69418;DHT22;56610;48.872;2.400;2022-12-18T10:33:53;3.00;99.90
69418;DHT22;56610;48.872;2.400;2022-12-18T10:36:19;3.10;99.90
69418;DHT22;56610;48.872;2.400;2022-12-18T10:38:45;3.30;99.90
69418;DHT22;56610;48.872;2.400;2022-12-18T10:46:35;3.50;99.90
69418;DHT22;56610;48.872;2.400;2022-12-18T10:49:01;3.30;99.90
69418;DHT22;56610;48.872;2.400;2022-12-18T10:51:32;3.40;99.90
69418;DHT22;56610;48.872;2.400;2022-12-18T10:56:34;3.30;99.90
69418;DHT22;56610;48.872;2.400;2022-12-18T10:59:09;3.50;99.90
69418;DHT22;56610;48.872;2.400;2022-12-18T11:01:55;3.60;99.90
69418;DHT22;56610;48.872;2.400;2022-12-18T11:07:04;3.70;99.90
69418;DHT22;56610;48.872;2.400;2022-12-18T11:09:34;3.60;99.90
69418;DHT22;56610;48.872;2.400;2022-12-18T11:12:08;3.60;99.90
69418;DHT22;56610;48.872;2.400;2022-12-18T11:14:47;3.90;99.90
69418;DHT22;56610;48.872;2.400;2022-12-18T11:17:30;3.90;99.90
69418;DHT22;56610;48.872;2.400;2022-12-18T11:20:02;4.00;99.90
69418;DHT22;56610;48.872;2.400;2022-12-18T11:22:34;4.20;99.90
69418;DHT22;56610;48.872;2.400;2022-12-18T11:27:41;4.10;99.90
69418;DHT22;56610;48.872;2.400;2022-12-18T11:30:33;4.30;99.90
69418;DHT22;56610;48.872;2.400;2022-12-18T11:33:09;4.30;99.90
69418;DHT22;56610;48.872;2.400;2022-12-18T11:35:52;4.50;99.90
69418;DHT22;56610;48.872;2.400;2022-12-18T11:38:32;4.70;99.90
69418;DHT22;56610;48.872;2.400;2022-12-18T11:44:15;4.80;99.90
69418;DHT22;56610;48.872;2.400;2022-12-18T11:46:51;4.80;99.90
69418;DHT22;56610;48.872;2.400;2022-12-18T11:49:33;4.70;99.90
69418;DHT22;56610;48.872;2.400;2022-12-18T11:52:10;4.60;99.90
69418;DHT22;56610;48.872;2.400;2022-12-18T11:54:40;4.30;99.90
69418;DHT22;56610;48.872;2.400;2022-12-18T12:00:12;4.60;99.90
69418;DHT22;56610;48.872;2.400;2022-12-18T12:08:55;4.50;99.90
69418;DHT22;56610;48.872;2.400;2022-12-18T12:11:48;4.50;99.90
69418;DHT22;56610;48.872;2.400;2022-12-18T12:25:30;5.30;99.90
69418;DHT22;56610;48.872;2.400;2022-12-18T12:34:31;5.20;99.90
69418;DHT22;56610;48.872;2.400;2022-12-18T12:40:04;5.20;99.90
69418;DHT22;56610;48.872;2.400;2022-12-18T12:42:42;5.10;99.90
69418;DHT22;56610;48.872;2.400;2022-12-18T12:45:36;5.40;99.90
69418;DHT22;56610;48.872;2.400;2022-12-18T12:48:06;5.10;99.90
69418;DHT22;56610;48.872;2.400;2022-12-18T12:50:34;5.10;99.90
69418;DHT22;56610;48.872;2.400;2022-12-18T12:53:01;5.30;99.90
69418;DHT22;56610;48.872;2.400;2022-12-18T12:55:28;5.10;99.90
69418;DHT22;56610;48.872;2.400;2022-12-18T12:58:13;5.30;99.90
69418;DHT22;56610;48.872;2.400;2022-12-18T13:04:01;4.80;99.90
69418;DHT22;56610;48.872;2.400;2022-12-18T13:06:30;5.00;99.90
69418;DHT22;56610;48.872;2.400;2022-12-18T13:09:00;5.20;99.90
69418;DHT22;56610;48.872;2.400;2022-12-18T13:11:46;5.00;99.90
69418;DHT22;56610;48.872;2.400;2022-12-18T13:14:32;5.20;99.90
69418;DHT22;56610;48.872;2.400;2022-12-18T13:23:05;5.20;99.90
69418;DHT22;56610;48.872;2.400;2022-12-18T13:25:37;5.20;99.90
69418;DHT22;56610;48.872;2.400;2022-12-18T13:28:16;5.10;99.90
69418;DHT22;56610;48.872;2.400;2022-12-18T13:30:46;5.00;99.90
69418;DHT22;56610;48.872;2.400;2022-12-18T13:48:57;4.90;99.90
69418;DHT22;56610;48.872;2.400;2022-12-18T13:51:24;5.00;99.90
69418;DHT22;56610;48.872;2.400;2022-12-18T13:53:55;5.10;99.90
69418;DHT22;56610;48.872;2.400;2022-12-18T13:56:25;5.00;99.90
69418;DHT22;56610;48.872;2.400;2022-12-18T14:01:45;5.40;99.90
69418;DHT22;56610;48.872;2.400;2022-12-18T14:04:34;5.40;99.90
69418;DHT22;56610;48.872;2.400;2022-12-18T14:07:06;5.70;99.90
69418;DHT22;56610;48.872;2.400;2022-12-18T14:09:37;5.70;99.90
69418;DHT22;56610;48.872;2.400;2022-12-18T14:12:05;5.50;99.90
69418;DHT22;56610;48.872;2.400;2022-12-18T14:14:52;5.70;99.90
69418;DHT22;56610;48.872;2.400;2022-12-18T14:17:18;5.90;99.90
69418;DHT22;56610;48.872;2.400;2022-12-18T14:19:46;5.70;99.90
69418;DHT22;56610;48.872;2.400;2022-12-18T14:22:21;5.70;99.90
69418;DHT22;56610;48.872;2.400;2022-12-18T14:24:47;5.90;99.90
69418;DHT22;56610;48.872;2.400;2022-12-18T14:27:29;5.90;99.90
69418;DHT22;56610;48.872;2.400;2022-12-18T14:29:55;5.70;99.90
69418;DHT22;56610;48.872;2.400;2022-12-18T14:32:21;5.80;99.90
69418;DHT22;56610;48.872;2.400;2022-12-18T14:34:51;5.70;99.90
69418;DHT22;56610;48.872;2.400;2022-12-18T14:37:25;5.60;99.90
69418;DHT22;56610;48.872;2.400;2022-12-18T14:40:01;5.70;99.90
69418;DHT22;56610;48.872;2.400;2022-12-18T14:42:30;5.60;99.90
69418;DHT22;56610;48.872;2.400;2022-12-18T14:48:39;5.90;99.90
69418;DHT22;56610;48.872;2.400;2022-12-18T14:51:26;5.90;99.90
69418;DHT22;56610;48.872;2.400;2022-12-18T14:54:02;5.90;99.90
69418;DHT22;56610;48.872;2.400;2022-12-18T14:56:33;6.20;99.90
69418;DHT22;56610;48.872;2.400;2022-12-18T14:59:02;6.10;99.90
69418;DHT22;56610;48.872;2.400;2022-12-18T15:01:37;6.00;99.90
69418;DHT22;56610;48.872;2.400;2022-12-18T15:04:05;6.20;99.90
69418;DHT22;56610;48.872;2.400;2022-12-18T15:06:48;6.30;99.90
69418;DHT22;56610;48.872;2.400;2022-12-18T15:09:25;6.10;99.90
69418;DHT22;56610;48.872;2.400;2022-12-18T15:11:57;6.30;99.90
69418;DHT22;56610;48.872;2.400;2022-12-18T15:14:43;6.30;99.90
69418;DHT22;56610;48.872;2.400;2022-12-18T15:17:21;6.00;99.90
69418;DHT22;56610;48.872;2.400;2022-12-18T15:19:49;6.10;99.90
69418;DHT22;56610;48.872;2.400;2022-12-18T15:22:20;6.30;99.90
69418;DHT22;56610;48.872;2.400;2022-12-18T15:24:47;6.10;99.90
69418;DHT22;56610;48.872;2.400;2022-12-18T15:27:34;6.20;99.90
69418;DHT22;56610;48.872;2.400;2022-12-18T15:32:39;5.70;99.90
69418;DHT22;56610;48.872;2.400;2022-12-18T15:35:15;5.80;99.90
69418;DHT22;56610;48.872;2.400;2022-12-18T15:37:41;5.90;99.90
69418;DHT22;56610;48.872;2.400;2022-12-18T15:40:12;5.70;99.90
69418;DHT22;56610;48.872;2.400;2022-12-18T15:45:42;5.80;99.90
69418;DHT22;56610;48.872;2.400;2022-12-18T15:48:20;5.60;99.90
69418;DHT22;56610;48.872;2.400;2022-12-18T15:50:46;5.70;99.90
69418;DHT22;56610;48.872;2.400;2022-12-18T15:53:11;6.00;99.90
69418;DHT22;56610;48.872;2.400;2022-12-18T15:55:37;5.80;99.90
69418;DHT22;56610;48.872;2.400;2022-12-18T15:58:21;5.70;99.90
69418;DHT22;56610;48.872;2.400;2022-12-18T16:00:47;6.00;99.90
69418;DHT22;56610;48.872;2.400;2022-12-18T16:03:13;6.00;99.90
69418;DHT22;56610;48.872;2.400;2022-12-18T16:05:38;6.00;99.90
69418;DHT22;56610;48.872;2.400;2022-12-18T16:08:04;6.10;99.90
69418;DHT22;56610;48.872;2.400;2022-12-18T16:10:30;6.30;99.90
69418;DHT22;56610;48.872;2.400;2022-12-18T16:12:56;6.10;99.90
69418;DHT22;56610;48.872;2.400;2022-12-18T16:15:22;6.10;99.90
69418;DHT22;56610;48.872;2.400;2022-12-18T16:17:47;6.30;99.90
69418;DHT22;56610;48.872;2.400;2022-12-18T16:20:18;6.20;99.90
69418;DHT22;56610;48.872;2.400;2022-12-18T16:22:45;6.10;99.90
69418;DHT22;56610;48.872;2.400;2022-12-18T16:25:23;6.30;99.90
69418;DHT22;56610;48.872;2.400;2022-12-18T16:27:49;6.20;99.90
69418;DHT22;56610;48.872;2.400;2022-12-18T16:30:20;6.10;99.90
69418;DHT22;56610;48.872;2.400;2022-12-18T16:32:46;6.30;99.90
69418;DHT22;56610;48.872;2.400;2022-12-18T16:35:13;6.40;99.90
69418;DHT22;56610;48.872;2.400;2022-12-18T16:37:40;6.10;99.90
69418;DHT22;56610;48.872;2.400;2022-12-18T16:40:07;6.20;99.90
69418;DHT22;56610;48.872;2.400;2022-12-18T16:42:34;6.40;99.90
69418;DHT22;56610;48.872;2.400;2022-12-18T16:45:00;6.50;99.90
69418;DHT22;56610;48.872;2.400;2022-12-18T16:47:25;6.30;99.90
69418;DHT22;56610;48.872;2.400;2022-12-18T16:49:51;6.40;99.90
69418;DHT22;56610;48.872;2.400;2022-12-18T16:52:18;6.50;99.90
69418;DHT22;56610;48.872;2.400;2022-12-18T16:54:44;6.40;99.90
69418;DHT22;56610;48.872;2.400;2022-12-18T16:57:15;6.60;99.90
69418;DHT22;56610;48.872;2.400;2022-12-18T16:59:41;6.80;99.90
69418;DHT22;56610;48.872;2.400;2022-12-18T17:02:18;6.60;99.90
69418;DHT22;56610;48.872;2.400;2022-12-18T17:04:45;6.60;99.90
69418;DHT22;56610;48.872;2.400;2022-12-18T17:07:10;6.70;99.90
69418;DHT22;56610;48.872;2.400;2022-12-18T17:09:37;6.60;99.90
69418;DHT22;56610;48.872;2.400;2022-12-18T17:12:03;6.50;99.90
69418;DHT22;56610;48.872;2.400;2022-12-18T17:14:29;6.70;99.90
69418;DHT22;56610;48.872;2.400;2022-12-18T17:16:55;6.70;99.90
69418;DHT22;56610;48.872;2.400;2022-12-18T17:19:22;6.60;99.90
69418;DHT22;56610;48.872;2.400;2022-12-18T17:21:49;6.70;99.90
69418;DHT22;56610;48.872;2.400;2022-12-18T17:24:15;6.80;99.90
69418;DHT22;56610;48.872;2.400;2022-12-18T17:26:41;6.60;99.90
69418;DHT22;56610;48.872;2.400;2022-12-18T17:29:07;6.70;99.90
69418;DHT22;56610;48.872;2.400;2022-12-18T17:31:34;6.90;99.90
69418;DHT22;56610;48.872;2.400;2022-12-18T17:34:02;6.60;99.90
69418;DHT22;56610;48.872;2.400;2022-12-18T17:36:29;6.70;99.90
69418;DHT22;56610;48.872;2.400;2022-12-18T17:39:01;6.80;99.90
69418;DHT22;56610;48.872;2.400;2022-12-18T17:41:28;6.70;99.90
69418;DHT22;56610;48.872;2.400;2022-12-18T17:43:57;6.60;99.90
69418;DHT22;56610;48.872;2.400;2022-12-18T17:46:23;6.70;99.90
69418;DHT22;56610;48.872;2.400;2022-12-18T17:48:50;6.70;99.90
69418;DHT22;56610;48.872;2.400;2022-12-18T17:51:18;6.50;99.90
69418;DHT22;56610;48.872;2.400;2022-12-18T17:53:44;6.70;99.90
69418;DHT22;56610;48.872;2.400;2022-12-18T17:56:14;6.80;99.90
69418;DHT22;56610;48.872;2.400;2022-12-18T17:58:40;6.50;99.90
69418;DHT22;56610;48.872;2.400;2022-12-18T18:03:53;6.70;99.90